KGCNKMMH

Guest
Details From KGCN - GRAND CANYON NATIONAL PARK
To KMMH - Mammoth Yosemite
Flight Number -
Tags decoded
Created
Modified
Stats Distance 367 nm / 679 km
Max Altitude 0 ft / 0 m
Waypoints 11
Social Downloads 1
Likes 0
Share VATSIM

Download

Looking for another format? Having issues loading an existing format? Contact us
Advertisement - Login to hide

Notes

Requested: KGCN CROWE ACLAM BLD J92 BTY TACUS CORUB TEPRE FEBAT CEKHE YOSEM KMMH

Route

KGCN CROWE ACLAM BLD J92 BTY TACUS CORUB TEPRE FEBAT CEKHE KMMH

ID Type Via Altitude Latitude Longitude Leg Dist Tot Dist Heading (true) Name
O KGCN APT - 0 ft / 0 m 35.95237˚ -112.14692˚ - 0 nm - GRAND CANYON NATIONAL PARK
CROWE FIX - 0 ft / 0 m 36.07423˚ -114.33273˚ 106 nm 106 nm 275° / 273° -
ACLAM FIX - 0 ft / 0 m 36.07509˚ -114.52259˚ 9 nm 115 nm 270° / 270° -
BLD VOR - 0 ft / 0 m 35.99578˚ -114.86358˚ 17 nm 132 nm 254° / 254° BOULDER CITY VORTAC
BTY VOR J92 (AWY-HI) 0 ft / 0 m 36.80058˚ -116.74764˚ 103 nm 235 nm 299° / 297° BEATTY VORTAC
TACUS FIX - 0 ft / 0 m 37.08778˚ -116.90333˚ 18 nm 254 nm 337° / 337° -
CORUB FIX - 0 ft / 0 m 37.68899˚ -118.80169˚ 97 nm 352 nm 292° / 291° -
TEPRE FIX - 0 ft / 0 m 37.64436˚ -118.69742˚ 5 nm 357 nm 118° / 118° -
FEBAT FIX - 0 ft / 0 m 37.61355˚ -118.69593˚ 1 nm 359 nm 178° / 178° -
CEKHE FIX - 0 ft / 0 m 37.60783˚ -118.72373˚ 1 nm 361 nm 255° / 255° -
O KMMH APT - 0 ft / 0 m 37.62405˚ -118.83874˚ 5 nm 366 nm 280° / 280° Mammoth Yosemite

Altitude Profile

Advertisement - Login to hide

Weather


0- 5 10 15 20 25 30 35+ Temperature / ° C

Clouds and Precipitation
Forecast for 2017-12-18 18:00 UTC. Updated 2 hours ago

Ground ~20,000 ft ~40,000 ft Winds

KGCN

Details ICAO KGCN (GCN)
Name GRAND CANYON NATIONAL PARK
Region United States
Timezone America/Phoenix (UTC-7.0)
Stats Elevation 6,609 ft / 2,014 m (AMSL)
Location 35.952369° -112.146919°
Runways 1
Magnetic Variation 10.743° E

METAR

KGCN 181654Z 07007KT 10SM CLR 05/M11 A3022 RMK AO2 SLP241 T00501111

Decode

TAF

TAF KGCN 181120Z 1812/1912 03006KT P6SM FEW250

Decode

Departure Runways

ID Width Length Bearing (true) Bearing (mag) Surface Threshold Offset Overrun Length
03 151 ft / 46 m 9,008 ft / 2,746 m 40.55° 29.81° Asphalt 0 ft / 0 m 0 ft / 0 m
21 151 ft / 46 m 9,008 ft / 2,746 m 220.57° 209.83° Asphalt 0 ft / 0 m 0 ft / 0 m

KMMH

Details ICAO KMMH (MMH)
Name Mammoth Yosemite
Region United States
Timezone America/Los_Angeles (UTC-8.0)
Stats Elevation 7,128 ft / 2,173 m (AMSL)
Location 37.624049° -118.838737°
Runways 1
Magnetic Variation 12.823° E

METAR

KMMH 181655Z AUTO 14005KT 10SM CLR 00/M08 A3030 RMK AO2 T10041083 PWINO

Decode

TAF

TAF KMMH 181120Z 1812/1912 VRB04KT P6SM FEW200

Decode

Destination Runways

ID Width Length Bearing (true) Bearing (mag) Surface Threshold Offset Overrun Length
09 98 ft / 30 m 6,987 ft / 2,130 m 109.02° 96.20° Asphalt 0 ft / 0 m 2,999 ft / 914 m
27 98 ft / 30 m 6,987 ft / 2,130 m 289.03° 276.21° Asphalt 0 ft / 0 m 0 ft / 0 m

Popular Alternatives